Ginys del Meteocat

Dades de l'estació automàtica l'Espluga de Francolí

?
?
Resum diari 23:00 TU
Dades diàries de l'estació meteorològica
Temperatura mitjana 5.8 °C
Temperatura màxima 13.1 °C 14:17 TU
Temperatura mínima 0.5 °C 4:17 TU
Humitat relativa mitjana 91%
Precipitació acumulada 0.1 mm
Ratxa màxima del vent (10 m) 10.1 km/h - 310º 15:11 TU
Pressió atmosfèrica mitjana 1022.7 hPa
Irradiació solar global 8.8 MJ/m2

El tram horari està expressat en Temps Universal (TU). Cal sumar una hora en horari d'hivern i dues en horari d'estiu per passar a l'hora oficial.

l'Espluga de Francolí

Metadades estació meteorol´gica
Municipi L'Espluga de Francolí
Comarca Conca de Barberà
Altitud 446 m
Data alta 23.02.1996
Estat actual Operativa
Dades de període
Període
TU
TM
°C
TX
°C
TN
°C
HRM
%
PPT
mm
VVM (10 m)
km/h
DVM (10 m)
graus
VVX (10 m)
km/h
PM
hPa
RS
W/m2
00:00 - 00:30 3.3 3.4 3.2 100 0.0 4.7 269 8.6 1024.7 0
00:30 - 01:00 3.3 3.5 3.2 100 0.0 4.0 269 6.5 1024.5 0
01:00 - 01:30 3.3 3.5 2.9 100 0.0 5.0 254 8.3 1024.4 0
01:30 - 02:00 2.7 3.1 2.4 100 0.0 2.2 259 4.7 1024.4 0
02:00 - 02:30 2.1 2.4 1.9 100 0.0 2.9 273 5.8 1024.4 0
02:30 - 03:00 2.2 2.5 1.7 100 0.0 2.2 266 5.8 1024.1 0
03:00 - 03:30 2.2 2.5 1.9 100 0.0 3.6 245 6.5 1023.9 0
03:30 - 04:00 1.6 2.0 1.0 100 0.0 3.2 269 6.5 1023.8 0
04:00 - 04:30 1.2 1.9 0.5 100 0.0 1.1 287 4.0 1023.9 0
04:30 - 05:00 1.7 2.2 1.4 100 0.0 2.5 269 5.8 1023.8 0
05:00 - 05:30 1.9 2.1 1.8 100 0.0 4.3 266 7.9 1023.6 0
05:30 - 06:00 2.3 2.8 1.9 100 0.0 3.2 235 7.2 1023.6 0
06:00 - 06:30 1.9 2.2 1.8 100 0.0 4.3 272 6.8 1023.6 0
06:30 - 07:00 2.1 2.6 1.8 100 0.0 5.0 250 8.6 1023.7 0
07:00 - 07:30 1.4 1.8 1.1 100 0.0 3.2 306 9.7 1024.0 5
07:30 - 08:00 1.1 1.5 0.8 100 0.0 1.1 227 3.2 1024.1 38
08:00 - 08:30 1.8 2.3 1.1 100 0.0 0.4 337 2.5 1024.2 104
08:30 - 09:00 2.5 2.8 2.4 100 0.0 2.2 287 5.0 1024.1 154
09:00 - 09:30 3.9 5.0 2.9 99 0.0 0.7 325 4.3 1023.7 209
09:30 - 10:00 5.8 6.7 4.7 91 0.0 1.4 95 4.3 1023.6 284
10:00 - 10:30 7.3 9.2 6.1 83 0.0 1.1 56 3.6 1023.4 354
10:30 - 11:00 8.8 9.6 8.2 79 0.0 3.6 79 6.8 1023.0 413
11:00 - 11:30 10.2 10.9 9.4 73 0.0 1.8 82 4.7 1022.4 411
11:30 - 12:00 10.7 11.1 10.1 72 0.0 2.9 54 6.1 1021.9 451
12:00 - 12:30 11.4 12.2 11.0 62 0.0 2.9 46 7.6 1021.2 488
12:30 - 13:00 12.3 12.6 12.0 60 0.0 3.2 47 8.3 1020.6 463
13:00 - 13:30 12.5 13.0 12.1 61 0.1 4.0 98 8.6 1020.3 413
13:30 - 14:00 12.5 12.9 12.3 62 0.0 2.5 130 9.0 1020.0 308
14:00 - 14:30 12.8 13.1 12.5 61 0.0 2.5 186 6.5 1020.0 290
14:30 - 15:00 12.7 13.0 12.1 63 0.0 4.0 259 9.4 1019.9 243
15:00 - 15:30 11.8 12.1 11.4 69 0.0 5.8 282 10.1 1020.1 125
15:30 - 16:00 11.2 11.4 10.7 75 0.0 4.3 241 8.6 1020.3 92
16:00 - 16:30 10.4 10.7 9.9 80 0.0 5.0 225 8.3 1020.4 67
16:30 - 17:00 9.2 9.9 8.5 86 0.0 6.1 206 9.0 1020.5 17
17:00 - 17:30 8.0 8.4 7.7 91 0.0 6.5 225 8.6 1020.9 0
17:30 - 18:00 7.2 7.8 6.8 94 0.0 5.0 252 9.0 1021.4 0
18:00 - 18:30 6.4 6.8 5.7 98 0.0 2.5 260 4.7 1021.7 0
18:30 - 19:00 5.7 5.9 5.5 100 0.0 2.9 281 5.8 1022.1 0
19:00 - 19:30 5.4 5.9 5.2 100 0.0 2.9 254 5.8 1022.4 0
19:30 - 20:00 4.9 5.2 4.6 100 0.0 4.0 261 6.5 1022.8 0
20:00 - 20:30 4.8 5.0 4.7 100 0.0 4.0 247 7.2 1022.9 0
20:30 - 21:00 4.8 5.0 4.7 100 0.0 2.9 257 5.4 1023.0 0
21:00 - 21:30 5.0 5.2 4.7 100 0.0 2.9 257 6.1 1022.9 0
21:30 - 22:00 4.7 4.8 4.6 100 0.0 4.7 270 7.6 1023.0 0
22:00 - 22:30 4.7 4.8 4.6 100 0.0 4.0 258 7.2 1023.0 0
22:30 - 23:00 5.0 5.3 4.7 100 0.0 4.0 249 7.2 1022.9 0
23:00 - 23:30 4.9 5.0 4.8 100 0.0 4.0 263 7.2 1022.7 0

Les dades en taronja només han passat un control de qualitat automàtic. Resta pendent la seva validació definitiva.